MMLM/LMM METAR and TAF weather

Enter ICAO airport designator
Station Type Date Time Source
MMLM METAR 2020/01/29 02:49 UTC NOAA

MMLM 290249Z 29006KT 10SM SKC 18/12 A2994 RMK SLP139


Station Type Date Time Source
MMLM Decoded METAR 2020/01/29 02:49 UTC NOAA

Los Mochis Airport, Mexico (MMLM) 25-41N 109-05W
Jan 28, 2020 - 09:49 PM EST / 2020.01.29 0249 UTC
Wind: from the WNW (290 degrees) at 7 MPH (6 KT):0
Visibility: 10 mile(s):0
Sky conditions: clear
Temperature: 64 F (18 C)
Dew Point: 53 F (12 C)
Relative Humidity: 67%
Pressure (altimeter): 29.94 in. Hg (1013 hPa)
ob: MMLM 290249Z 29006KT 10SM SKC 18/12 A2994 RMK SLP139
cycle: 3

Station Type Date Time Source
MMLM TAF 2020/01/28 18:06 UTC NOAA

TAF TAF MMLM 281604Z 2818/2918 31015KT P6SM SKC
FM290400 33008KT P6SM SKC
BECMG 2910/2911 3SM BR HZ
TEMPO 2911/2915 1/2SM FG VV001
FM291600 20006KT 6SM HZ SKC

Example: see airport list